Time;durP1;ratioP1;P1;durP2;ratioP2;P2;SDS_P1;SDS_P2;PMS_P1;PMS_P2;Temp;Humidity;BMP_temperature;BMP_pressure;BME280_temperature;BME280_humidity;BME280_pressure;Samples;Min_cycle;Max_cycle;Signal;HPM_P1;HPM_P2
2021/09/09 00:01:49;;;;;;;1.50;0.90;;;19.40;93.70;;;;;;4978791;28;20477;-79
2021/09/09 00:04:15;;;;;;;1.50;0.90;;;19.40;93.30;;;;;;4989176;28;20461;-79
2021/09/09 00:06:42;;;;;;;1.50;0.90;;;19.40;93.80;;;;;;4985213;28;20476;-79
2021/09/09 00:09:10;;;;;;;1.50;1.20;;;19.30;93.70;;;;;;4988684;28;20481;-79
2021/09/09 00:11:37;;;;;;;1.50;0.90;;;19.30;93.70;;;;;;4975426;28;21044;-79
2021/09/09 00:14:04;;;;;;;1.50;1.00;;;19.30;93.50;;;;;;4978694;28;20938;-79
2021/09/09 00:16:31;;;;;;;1.50;0.90;;;19.30;94.10;;;;;;4977319;28;20833;-79
2021/09/09 00:18:58;;;;;;;1.50;1.00;;;19.30;94.00;;;;;;4987119;28;20476;-79
2021/09/09 00:21:25;;;;;;;1.47;0.90;;;19.30;94.10;;;;;;4972894;28;20915;-79
2021/09/09 00:23:51;;;;;;;1.50;1.00;;;19.30;94.10;;;;;;4981267;28;20472;-78
2021/09/09 00:26:20;;;;;;;1.50;0.90;;;19.20;94.20;;;;;;4977510;28;20477;-79
2021/09/09 00:28:46;;;;;;;1.50;0.90;;;19.20;94.50;;;;;;4976747;28;20497;-79
2021/09/09 00:31:13;;;;;;;1.50;1.00;;;19.10;94.50;;;;;;4981535;28;20499;-79
2021/09/09 00:33:40;;;;;;;1.50;0.90;;;19.10;94.20;;;;;;4982917;28;20493;-80
2021/09/09 00:36:07;;;;;;;1.50;1.00;;;19.10;94.20;;;;;;4981983;28;20477;-79
2021/09/09 00:38:34;;;;;;;1.50;0.90;;;19.10;94.40;;;;;;4991468;28;20489;-78
2021/09/09 00:41:01;;;;;;;1.50;1.00;;;19.10;94.50;;;;;;4983526;28;20463;-79
2021/09/09 00:43:29;;;;;;;1.50;0.90;;;19.00;94.40;;;;;;5000566;28;20836;-79
2021/09/09 00:45:57;;;;;;;1.50;0.97;;;19.00;94.50;;;;;;4978495;28;20465;-78
2021/09/09 00:48:25;;;;;;;1.50;0.90;;;19.00;94.50;;;;;;4973697;28;20480;-78
2021/09/09 00:50:53;;;;;;;1.50;1.00;;;19.00;94.80;;;;;;4980433;28;20465;-78
2021/09/09 00:53:21;;;;;;;1.50;0.90;;;19.00;94.90;;;;;;4982587;28;20461;-79
2021/09/09 00:55:49;;;;;;;1.50;0.90;;;19.00;95.00;;;;;;4982443;28;20468;-78
2021/09/09 00:58:17;;;;;;;1.50;1.00;;;19.00;95.00;;;;;;4994471;28;20476;-78
2021/09/09 01:00:45;;;;;;;1.83;1.20;;;18.90;95.10;;;;;;4990946;28;20460;-78
2021/09/09 01:03:12;;;;;;;1.50;0.90;;;18.90;95.50;;;;;;4972351;28;20493;-78
2021/09/09 01:05:39;;;;;;;1.50;1.00;;;18.90;95.50;;;;;;4991192;28;21129;-78
2021/09/09 01:08:07;;;;;;;1.50;0.97;;;18.80;95.80;;;;;;4979085;28;20491;-79
2021/09/09 01:10:35;;;;;;;1.50;1.00;;;18.80;95.80;;;;;;4992612;28;20988;-78
2021/09/09 01:13:02;;;;;;;1.47;0.90;;;18.80;95.80;;;;;;4978534;28;20852;-78
2021/09/09 01:15:28;;;;;;;1.50;0.90;;;18.80;96.20;;;;;;4991711;28;20956;-78
2021/09/09 01:17:56;;;;;;;1.50;1.00;;;18.80;96.00;;;;;;4979824;28;20546;-78
2021/09/09 01:20:23;;;;;;;1.50;1.00;;;18.90;95.60;;;;;;4992969;28;20467;-78
2021/09/09 01:22:50;;;;;;;1.47;1.00;;;18.80;96.00;;;;;;4975847;28;20484;-78
2021/09/09 01:25:18;;;;;;;1.50;0.97;;;18.80;95.90;;;;;;4983015;28;20473;-81
2021/09/09 01:27:45;;;;;;;1.50;0.93;;;18.80;95.90;;;;;;4976545;28;20477;-80
2021/09/09 01:30:12;;;;;;;1.50;0.90;;;18.80;96.30;;;;;;4980152;28;20465;-79
2021/09/09 01:32:39;;;;;;;1.50;0.93;;;18.80;96.00;;;;;;4963787;28;20482;-79
2021/09/09 01:35:06;;;;;;;1.50;0.97;;;18.80;96.20;;;;;;4992473;28;20676;-79
2021/09/09 01:37:34;;;;;;;1.50;0.90;;;18.80;96.20;;;;;;4981237;28;20572;-78
2021/09/09 01:40:01;;;;;;;1.47;0.90;;;18.70;96.00;;;;;;4986485;28;20465;-78
2021/09/09 01:42:29;;;;;;;1.47;1.00;;;18.70;96.30;;;;;;4989759;28;20504;-78
2021/09/09 01:44:56;;;;;;;1.50;0.90;;;18.80;96.20;;;;;;4988387;28;20466;-78
2021/09/09 01:47:23;;;;;;;1.50;1.00;;;18.80;96.10;;;;;;4973987;28;20544;-77
2021/09/09 01:49:49;;;;;;;1.50;1.00;;;18.80;96.10;;;;;;4987373;28;21010;-77
2021/09/09 01:52:16;;;;;;;1.50;1.00;;;18.80;96.00;;;;;;4980635;28;20477;-78
2021/09/09 01:54:43;;;;;;;1.50;0.97;;;18.80;95.70;;;;;;4971952;28;20466;-78
2021/09/09 01:57:10;;;;;;;1.47;0.90;;;18.80;95.50;;;;;;4966530;28;20494;-78
2021/09/09 01:59:38;;;;;;;1.50;1.00;;;18.80;95.70;;;;;;4992000;28;20481;-78
2021/09/09 02:02:05;;;;;;;1.50;0.90;;;18.70;95.80;;;;;;4985288;28;20496;-77
2021/09/09 02:04:32;;;;;;;1.50;1.00;;;18.70;96.20;;;;;;4985453;28;20481;-78
2021/09/09 02:06:59;;;;;;;1.50;1.00;;;18.70;96.10;;;;;;4979184;28;20485;-78
2021/09/09 02:09:26;;;;;;;1.50;1.00;;;18.70;95.80;;;;;;4990517;28;20485;-77
2021/09/09 02:11:52;;;;;;;1.50;0.90;;;18.70;95.90;;;;;;4983476;28;20485;-78
2021/09/09 02:14:19;;;;;;;1.50;0.90;;;18.70;95.90;;;;;;4983321;28;20469;-77
2021/09/09 02:16:47;;;;;;;1.50;1.00;;;18.70;95.90;;;;;;4982436;28;20532;-77
2021/09/09 02:19:14;;;;;;;1.50;1.00;;;18.70;96.00;;;;;;4993779;28;20485;-77
2021/09/09 02:21:41;;;;;;;1.50;1.00;;;18.70;95.50;;;;;;4972463;28;20480;-77
2021/09/09 02:24:08;;;;;;;1.50;1.00;;;18.70;95.70;;;;;;4983162;28;20513;-78
2021/09/09 02:26:35;;;;;;;1.50;1.00;;;18.70;95.80;;;;;;4978629;28;20491;-77
2021/09/09 02:29:02;;;;;;;1.50;1.00;;;18.70;95.60;;;;;;4983520;28;21013;-78
2021/09/09 02:31:29;;;;;;;1.50;1.00;;;18.70;95.50;;;;;;4960223;28;20889;-77
2021/09/09 02:33:57;;;;;;;1.50;1.00;;;18.70;95.70;;;;;;4980680;28;20468;-77
2021/09/09 02:36:23;;;;;;;1.50;1.00;;;18.70;95.40;;;;;;4982294;28;20547;-78
2021/09/09 02:38:50;;;;;;;1.50;0.90;;;18.70;95.40;;;;;;4996017;28;20472;-77
2021/09/09 02:41:17;;;;;;;1.50;0.90;;;18.70;95.40;;;;;;4977046;28;20493;-77
2021/09/09 02:43:44;;;;;;;1.50;0.97;;;18.70;95.30;;;;;;4985728;28;20480;-77
2021/09/09 02:46:11;;;;;;;1.50;1.00;;;18.60;95.70;;;;;;4980512;28;20485;-77
2021/09/09 02:48:37;;;;;;;1.50;1.10;;;18.70;95.70;;;;;;4992848;28;20481;-78
2021/09/09 02:51:06;;;;;;;1.50;0.90;;;18.60;95.40;;;;;;4975506;28;20470;-77
2021/09/09 02:53:32;;;;;;;1.50;0.90;;;18.60;95.40;;;;;;4987127;28;20464;-77
2021/09/09 02:55:59;;;;;;;1.50;1.00;;;18.60;95.30;;;;;;4975847;28;20457;-78
2021/09/09 02:58:26;;;;;;;1.50;1.00;;;18.60;95.30;;;;;;4986333;28;20780;-78
2021/09/09 03:00:53;;;;;;;1.50;0.90;;;18.50;95.50;;;;;;4979585;28;20470;-77
2021/09/09 03:03:21;;;;;;;1.50;1.00;;;18.50;95.70;;;;;;4991197;28;21004;-78
2021/09/09 03:05:48;;;;;;;1.50;0.90;;;18.50;95.50;;;;;;4976833;28;20476;-78
2021/09/09 03:08:16;;;;;;;1.50;1.00;;;18.50;95.60;;;;;;4990551;28;20496;-78
2021/09/09 03:10:42;;;;;;;1.50;1.10;;;18.50;95.70;;;;;;4990962;28;20461;-78
2021/09/09 03:13:09;;;;;;;1.70;1.53;;;18.50;95.70;;;;;;4984288;28;20532;-78
2021/09/09 03:15:36;;;;;;;1.50;1.00;;;18.50;95.80;;;;;;4982985;28;20469;-77
2021/09/09 03:18:03;;;;;;;1.50;1.00;;;18.50;95.90;;;;;;4965309;28;20490;-78
2021/09/09 03:20:30;;;;;;;1.50;0.90;;;18.50;96.20;;;;;;4989769;28;20468;-77
2021/09/09 03:22:57;;;;;;;1.50;1.00;;;18.50;96.20;;;;;;4983852;28;20871;-77
2021/09/09 03:25:25;;;;;;;1.50;1.00;;;18.50;95.80;;;;;;4987558;28;21098;-78
2021/09/09 03:27:52;;;;;;;1.50;1.00;;;18.40;95.80;;;;;;4976751;28;20485;-77
2021/09/09 03:30:19;;;;;;;1.50;0.90;;;18.40;95.70;;;;;;4984777;28;20468;-77
2021/09/09 03:32:46;;;;;;;1.50;1.00;;;18.40;95.70;;;;;;4959384;28;20777;-78
2021/09/09 03:35:12;;;;;;;1.50;1.00;;;18.40;96.50;;;;;;4988583;28;20502;-78
2021/09/09 03:37:39;;;;;;;1.50;0.90;;;18.40;96.20;;;;;;4977324;28;20487;-77
2021/09/09 03:40:07;;;;;;;1.50;0.93;;;18.30;96.40;;;;;;4988660;28;20479;-77
2021/09/09 03:42:36;;;;;;;1.50;1.00;;;18.30;96.70;;;;;;4982999;28;20873;-78
2021/09/09 03:45:02;;;;;;;1.50;0.97;;;18.30;96.80;;;;;;4986896;28;20472;-78
2021/09/09 03:47:29;;;;;;;1.50;0.90;;;18.20;96.60;;;;;;4971377;28;20601;-78
2021/09/09 03:49:56;;;;;;;1.50;0.97;;;18.20;96.60;;;;;;4987261;28;20481;-78
2021/09/09 03:52:23;;;;;;;1.50;1.00;;;18.20;97.00;;;;;;4964798;28;20828;-78
2021/09/09 03:54:50;;;;;;;1.50;1.00;;;18.20;97.40;;;;;;4982851;28;20481;-78
2021/09/09 03:57:17;;;;;;;1.50;0.90;;;18.10;97.50;;;;;;4980518;28;20484;-78
2021/09/09 03:59:45;;;;;;;1.50;0.90;;;18.10;97.80;;;;;;4993007;28;20488;-78
2021/09/09 04:02:12;;;;;;;1.50;0.90;;;18.10;98.00;;;;;;4978139;28;20945;-79
2021/09/09 04:04:39;;;;;;;1.50;0.90;;;18.10;98.20;;;;;;4988763;28;20499;-78
2021/09/09 04:07:06;;;;;;;1.50;0.90;;;18.00;97.80;;;;;;4981858;28;20480;-78
2021/09/09 04:09:33;;;;;;;1.50;0.90;;;18.00;97.40;;;;;;4986346;28;20780;-78
2021/09/09 04:12:00;;;;;;;1.50;1.00;;;18.00;97.40;;;;;;4976792;28;20563;-77
2021/09/09 04:14:26;;;;;;;1.50;0.90;;;17.90;97.80;;;;;;4996622;28;20457;-77
2021/09/09 04:16:54;;;;;;;1.50;1.00;;;17.90;98.10;;;;;;4973444;28;20485;-78
2021/09/09 04:19:23;;;;;;;1.57;1.17;;;17.90;98.20;;;;;;4980440;28;20493;-78
2021/09/09 04:21:50;;;;;;;1.50;1.00;;;17.80;98.20;;;;;;4983026;28;20491;-78
2021/09/09 04:24:17;;;;;;;1.50;1.00;;;17.90;97.80;;;;;;4991657;28;20659;-78
2021/09/09 04:26:45;;;;;;;1.50;0.90;;;17.90;97.90;;;;;;4969571;28;20488;-77
2021/09/09 04:29:11;;;;;;;1.50;1.00;;;17.80;97.60;;;;;;4988833;28;20486;-79
2021/09/09 04:31:38;;;;;;;1.50;1.00;;;17.80;97.80;;;;;;4972538;28;20750;-78
2021/09/09 04:34:07;;;;;;;1.53;1.10;;;17.80;97.80;;;;;;4980249;28;20665;-78
2021/09/09 04:36:34;;;;;;;1.50;1.00;;;17.80;98.20;;;;;;4983563;28;20591;-78
2021/09/09 04:39:01;;;;;;;1.50;0.90;;;17.90;98.10;;;;;;4996141;28;20476;-79
2021/09/09 04:41:28;;;;;;;1.50;1.00;;;17.80;98.00;;;;;;4972856;28;20563;-80
2021/09/09 04:43:55;;;;;;;1.50;1.00;;;17.90;98.10;;;;;;4979139;28;20724;-79
2021/09/09 04:46:22;;;;;;;1.50;1.00;;;17.90;98.10;;;;;;4975364;28;20478;-77
2021/09/09 04:48:49;;;;;;;1.50;1.00;;;17.90;98.00;;;;;;4979823;28;20481;-77
2021/09/09 04:51:19;;;;;;;1.60;1.13;;;17.90;98.20;;;;;;4980524;28;20481;-77
2021/09/09 04:53:46;;;;;;;1.50;1.00;;;17.90;98.00;;;;;;4988128;28;20876;-77
2021/09/09 04:56:13;;;;;;;1.50;1.00;;;17.90;98.10;;;;;;4977124;28;20537;-77
2021/09/09 04:58:50;;;;;;;1.50;1.00;;;17.90;98.10;;;;;;4996533;28;20500;-77
2021/09/09 05:01:16;;;;;;;1.50;0.90;;;17.90;98.10;;;;;;4980695;28;21034;-79
2021/09/09 05:03:43;;;;;;;1.50;0.90;;;17.90;98.00;;;;;;5001054;28;20485;-79
2021/09/09 05:06:10;;;;;;;1.50;1.00;;;17.90;97.90;;;;;;4986396;28;20504;-78
2021/09/09 05:08:38;;;;;;;1.50;1.00;;;17.90;98.20;;;;;;4998029;28;20487;-78
2021/09/09 05:11:08;;;;;;;1.50;1.00;;;17.90;98.20;;;;;;4983299;28;20465;-80
2021/09/09 05:13:35;;;;;;;1.50;0.90;;;17.90;98.20;;;;;;4982088;28;20517;-79
2021/09/09 05:16:01;;;;;;;1.50;0.90;;;18.00;97.90;;;;;;4968774;28;20489;-78
2021/09/09 05:18:28;;;;;;;1.50;1.00;;;17.90;98.20;;;;;;4983668;28;20484;-80
2021/09/09 05:20:57;;;;;;;1.50;1.00;;;17.90;98.10;;;;;;4984448;28;20859;-80
2021/09/09 05:23:24;;;;;;;1.50;1.00;;;18.00;98.10;;;;;;4997523;28;20477;-77
2021/09/09 05:25:53;;;;;;;1.50;1.00;;;18.00;98.00;;;;;;4984691;28;20471;-78
2021/09/09 05:28:20;;;;;;;1.50;0.90;;;18.00;97.90;;;;;;4994140;28;20487;-80
2021/09/09 05:30:52;;;;;;;1.50;1.00;;;18.00;97.90;;;;;;4995863;28;20595;-78
2021/09/09 05:33:19;;;;;;;1.50;1.00;;;18.00;97.70;;;;;;4974105;28;20477;-78
2021/09/09 05:35:46;;;;;;;1.50;1.00;;;18.10;97.60;;;;;;4991232;28;20572;-81
2021/09/09 05:38:13;;;;;;;1.50;0.90;;;18.10;97.70;;;;;;5000586;28;20495;-79
2021/09/09 05:40:40;;;;;;;1.50;1.00;;;18.10;97.40;;;;;;4994922;28;21049;-80
2021/09/09 05:43:08;;;;;;;1.50;1.00;;;18.10;97.60;;;;;;4976182;28;20551;-79
2021/09/09 05:45:35;;;;;;;1.50;0.97;;;18.20;97.40;;;;;;4985554;28;20844;-81
2021/09/09 05:48:03;;;;;;;1.80;1.33;;;18.20;97.40;;;;;;4983562;28;20489;-79
2021/09/09 05:50:30;;;;;;;1.50;0.90;;;18.20;97.20;;;;;;4995227;28;20886;-79
2021/09/09 05:52:57;;;;;;;1.50;0.90;;;18.20;97.20;;;;;;4988099;28;20483;-79
2021/09/09 05:55:24;;;;;;;1.50;0.90;;;18.30;97.20;;;;;;4994990;28;20548;-81
2021/09/09 05:57:51;;;;;;;1.50;1.00;;;18.30;97.10;;;;;;4984218;28;20487;-80
2021/09/09 06:00:24;;;;;;;1.50;1.00;;;18.40;97.20;;;;;;4991344;28;20893;-80
2021/09/09 06:02:51;;;;;;;2.53;1.20;;;18.50;97.20;;;;;;4968095;28;20510;-80
2021/09/09 06:05:19;;;;;;;1.50;0.90;;;18.60;97.20;;;;;;4995505;28;21016;-80
2021/09/09 06:07:46;;;;;;;1.50;0.90;;;18.80;96.40;;;;;;4941462;28;20486;-80
2021/09/09 06:10:13;;;;;;;1.50;1.00;;;19.00;96.40;;;;;;4971753;28;20534;-80
2021/09/09 06:12:40;;;;;;;1.50;0.90;;;19.10;95.90;;;;;;4940803;28;20523;-79
2021/09/09 06:15:08;;;;;;;1.50;1.00;;;19.30;95.30;;;;;;4971188;28;21275;-80
2021/09/09 06:17:36;;;;;;;1.50;1.00;;;19.50;95.40;;;;;;4950349;28;20479;-80
2021/09/09 06:20:04;;;;;;;1.50;0.90;;;19.70;94.80;;;;;;4972896;28;20992;-80
2021/09/09 06:22:31;;;;;;;1.50;0.90;;;19.90;94.30;;;;;;4942938;28;20487;-77
2021/09/09 06:24:58;;;;;;;1.50;0.90;;;20.00;93.40;;;;;;4959894;28;20514;-80
2021/09/09 06:27:25;;;;;;;1.50;0.90;;;20.20;93.40;;;;;;4942879;28;20583;-79
2021/09/09 06:29:51;;;;;;;1.50;0.97;;;20.30;92.30;;;;;;4967647;28;20861;-78
2021/09/09 06:32:18;;;;;;;1.50;0.90;;;20.40;91.90;;;;;;4951115;28;20999;-79
2021/09/09 06:34:46;;;;;;;1.50;1.00;;;20.50;91.50;;;;;;4966687;28;20545;-78
2021/09/09 06:37:13;;;;;;;1.50;0.90;;;20.70;91.20;;;;;;4947051;28;20495;-79
2021/09/09 06:39:40;;;;;;;1.50;0.90;;;20.80;90.10;;;;;;4960829;28;20991;-78
2021/09/09 06:42:06;;;;;;;1.50;0.93;;;20.90;90.50;;;;;;4948317;28;20482;-79
2021/09/09 06:44:33;;;;;;;1.50;0.90;;;21.00;89.90;;;;;;4959825;28;20486;-79
2021/09/09 06:47:00;;;;;;;1.50;0.90;;;21.10;89.50;;;;;;4948642;28;20863;-79
2021/09/09 06:49:26;;;;;;;1.50;0.90;;;21.20;89.50;;;;;;4966616;28;20482;-79
2021/09/09 06:51:55;;;;;;;1.50;0.90;;;21.20;89.40;;;;;;4963110;28;21028;-80
2021/09/09 06:54:21;;;;;;;1.60;1.13;;;21.40;89.00;;;;;;4971286;28;20849;-79
2021/09/09 06:56:48;;;;;;;1.50;0.97;;;21.50;87.40;;;;;;4966741;28;20485;-80
2021/09/09 06:59:15;;;;;;;1.50;0.90;;;21.70;87.10;;;;;;4973592;28;20496;-78
2021/09/09 07:01:42;;;;;;;1.50;0.97;;;21.80;87.30;;;;;;4962965;28;21052;-79
2021/09/09 07:04:08;;;;;;;1.50;0.90;;;21.90;87.20;;;;;;4971589;28;20496;-78
2021/09/09 07:06:35;;;;;;;1.50;0.90;;;21.90;86.70;;;;;;4959933;28;20627;-79
2021/09/09 07:09:03;;;;;;;1.50;0.90;;;21.80;86.40;;;;;;4966980;28;20485;-78
2021/09/09 07:11:30;;;;;;;1.50;0.90;;;21.90;86.80;;;;;;4956602;28;20630;-79
2021/09/09 07:13:57;;;;;;;1.50;0.90;;;21.90;87.00;;;;;;4963659;28;20469;-79
2021/09/09 07:16:23;;;;;;;1.50;1.10;;;22.00;87.20;;;;;;4957390;28;20486;-80
2021/09/09 07:18:50;;;;;;;1.50;0.90;;;22.20;86.90;;;;;;4961376;28;20478;-80
2021/09/09 07:21:17;;;;;;;1.50;0.90;;;22.40;87.00;;;;;;4957795;28;20491;-79
2021/09/09 07:23:46;;;;;;;1.50;0.90;;;22.60;86.60;;;;;;4959920;28;20482;-80
2021/09/09 07:26:14;;;;;;;1.50;0.90;;;22.80;85.60;;;;;;4958843;28;20649;-80
2021/09/09 07:28:41;;;;;;;1.50;0.90;;;22.90;85.30;;;;;;4959421;28;20482;-80
2021/09/09 07:31:08;;;;;;;1.50;0.90;;;23.00;85.00;;;;;;4957959;28;20482;-80
2021/09/09 07:33:35;;;;;;;1.50;0.90;;;23.00;85.10;;;;;;4959892;28;20847;-79
2021/09/09 07:36:01;;;;;;;2.27;1.33;;;23.00;85.00;;;;;;4959734;28;20469;-79
2021/09/09 07:38:28;;;;;;;1.50;0.90;;;23.00;84.70;;;;;;4954992;28;20477;-80
2021/09/09 07:40:55;;;;;;;1.50;0.90;;;23.10;84.60;;;;;;4963090;28;20466;-79
2021/09/09 07:43:23;;;;;;;1.50;0.90;;;23.20;84.30;;;;;;4968574;28;20468;-81
2021/09/09 07:45:50;;;;;;;1.57;1.10;;;23.20;84.40;;;;;;4964232;28;20589;-81
2021/09/09 07:48:17;;;;;;;1.50;0.90;;;23.40;84.70;;;;;;4971207;28;20584;-79
2021/09/09 07:50:44;;;;;;;1.50;0.90;;;23.40;84.00;;;;;;4954089;29;20498;-78
2021/09/09 07:53:11;;;;;;;1.50;0.90;;;23.40;83.60;;;;;;4944856;28;20619;-79
2021/09/09 07:55:38;;;;;;;1.50;0.90;;;23.40;83.90;;;;;;4972826;28;20486;-79
2021/09/09 07:58:05;;;;;;;1.50;0.90;;;23.50;84.10;;;;;;4951038;28;20482;-79
2021/09/09 08:00:33;;;;;;;1.70;1.33;;;23.70;84.00;;;;;;4972201;28;20454;-81
2021/09/09 08:03:00;;;;;;;1.50;0.90;;;23.90;83.70;;;;;;4955604;28;20481;-79
2021/09/09 08:05:27;;;;;;;2.23;2.00;;;23.90;83.30;;;;;;4968246;28;21033;-79
2021/09/09 08:07:53;;;;;;;1.50;1.00;;;24.10;83.20;;;;;;4980291;28;20485;-78
2021/09/09 08:10:20;;;;;;;1.50;1.10;;;24.20;82.90;;;;;;4975071;28;20457;-80
2021/09/09 08:12:48;;;;;;;1.50;0.90;;;24.20;82.90;;;;;;4958580;28;20485;-81
2021/09/09 08:15:16;;;;;;;1.50;0.90;;;24.30;83.30;;;;;;4971615;28;20821;-79
2021/09/09 08:17:46;;;;;;;1.47;0.90;;;24.50;82.40;;;;;;4976869;28;20481;-80
2021/09/09 08:20:13;;;;;;;1.50;0.90;;;24.60;82.50;;;;;;4971139;28;21008;-80
2021/09/09 08:22:40;;;;;;;1.50;0.90;;;24.70;81.50;;;;;;4961056;28;21051;-79
2021/09/09 08:25:08;;;;;;;1.70;1.60;;;24.80;81.70;;;;;;4970763;28;20488;-79
2021/09/09 08:27:34;;;;;;;1.50;0.90;;;24.80;81.70;;;;;;4957425;28;20477;-81
2021/09/09 08:30:02;;;;;;;1.50;1.00;;;25.00;82.00;;;;;;4971614;28;20481;-80
2021/09/09 08:32:29;;;;;;;1.50;0.90;;;25.20;81.00;;;;;;4962687;28;20489;-80
2021/09/09 08:34:58;;;;;;;1.50;0.90;;;25.40;81.60;;;;;;4972234;28;20842;-81
2021/09/09 08:37:25;;;;;;;1.50;0.90;;;25.60;80.90;;;;;;4972405;28;20575;-80
2021/09/09 08:39:52;;;;;;;1.50;0.90;;;25.80;80.80;;;;;;4978995;28;20474;-81
2021/09/09 08:42:19;;;;;;;1.50;0.90;;;25.90;80.00;;;;;;4978282;28;20477;-81
2021/09/09 08:44:47;;;;;;;1.50;0.90;;;26.10;80.30;;;;;;4978152;28;20487;-80
2021/09/09 08:47:15;;;;;;;1.50;0.90;;;26.10;79.70;;;;;;4977103;28;20477;-80
2021/09/09 08:49:44;;;;;;;1.50;0.80;;;26.20;79.20;;;;;;4979520;28;20670;-80
2021/09/09 08:52:12;;;;;;;1.50;0.83;;;26.30;79.90;;;;;;4959295;28;21000;-80
2021/09/09 08:54:39;;;;;;;2.77;1.20;;;26.50;79.40;;;;;;4975683;28;20457;-79
2021/09/09 08:57:07;;;;;;;1.60;0.90;;;26.60;78.20;;;;;;4976084;28;20491;-80
2021/09/09 08:59:34;;;;;;;1.50;0.80;;;26.50;78.20;;;;;;4981822;28;20500;-81
2021/09/09 09:02:03;;;;;;;1.50;0.80;;;26.70;77.90;;;;;;4972960;28;20488;-80
2021/09/09 09:04:30;;;;;;;1.50;0.87;;;26.80;77.70;;;;;;4982035;28;20477;-79
2021/09/09 09:06:57;;;;;;;1.50;0.80;;;26.90;78.20;;;;;;4972299;28;20487;-79
2021/09/09 09:09:25;;;;;;;1.50;0.80;;;27.00;78.00;;;;;;4982998;28;20524;-80
2021/09/09 09:11:53;;;;;;;1.50;0.80;;;27.20;77.30;;;;;;4972436;28;20870;-80
2021/09/09 09:14:22;;;;;;;1.50;0.90;;;27.30;77.20;;;;;;4983979;28;20849;-79
2021/09/09 09:16:50;;;;;;;1.50;0.90;;;27.40;77.40;;;;;;4975107;28;20480;-80
2021/09/09 09:19:20;;;;;;;1.50;0.80;;;27.30;77.70;;;;;;4982941;28;20562;-80
2021/09/09 09:21:49;;;;;;;1.50;0.80;;;27.30;78.00;;;;;;4972129;28;20617;-78
2021/09/09 09:24:19;;;;;;;1.50;0.90;;;27.30;77.20;;;;;;4984071;28;20485;-79
2021/09/09 09:27:05;;;;;;;1.50;0.90;;;27.30;77.60;;;;;;4971427;28;20563;-79
2021/09/09 09:29:32;;;;;;;1.50;0.80;;;27.40;78.00;;;;;;4981547;28;21039;-79
2021/09/09 09:32:08;;;;;;;1.50;0.90;;;27.50;77.00;;;;;;4974765;28;20480;-80
2021/09/09 09:34:35;;;;;;;1.50;0.90;;;27.60;76.70;;;;;;4977443;28;20461;-79
2021/09/09 09:37:03;;;;;;;1.50;0.80;;;27.70;76.30;;;;;;4965866;28;21003;-79
2021/09/09 09:39:29;;;;;;;1.47;0.80;;;27.80;76.60;;;;;;4971893;28;21002;-79
2021/09/09 09:41:59;;;;;;;1.43;0.80;;;28.00;76.20;;;;;;4963372;28;20484;-79
2021/09/09 09:44:30;;;;;;;1.50;0.80;;;28.10;75.90;;;;;;4979464;28;20492;-80
2021/09/09 09:47:09;;;;;;;1.47;0.80;;;28.30;75.60;;;;;;4964942;28;20492;-80
2021/09/09 09:49:37;;;;;;;1.50;0.80;;;28.30;75.20;;;;;;4974833;28;20477;-81
2021/09/09 09:52:06;;;;;;;1.43;0.90;;;28.40;76.60;;;;;;4954659;28;20481;-80
2021/09/09 09:54:33;;;;;;;1.60;1.10;;;28.40;75.70;;;;;;4971169;28;20502;-80
2021/09/09 09:57:01;;;;;;;1.50;0.80;;;28.50;76.10;;;;;;4955657;28;20533;-79
2021/09/09 09:59:30;;;;;;;1.50;0.80;;;28.60;76.80;;;;;;4975743;28;21015;-80
2021/09/09 10:01:57;;;;;;;1.47;0.80;;;28.70;76.60;;;;;;4965936;28;20485;-77
2021/09/09 10:04:24;;;;;;;1.50;0.90;;;28.70;76.70;;;;;;4973430;28;20470;-80
2021/09/09 10:06:52;;;;;;;1.50;0.90;;;28.80;76.90;;;;;;4972589;28;20480;-80
2021/09/09 10:09:20;;;;;;;1.43;0.80;;;28.80;77.30;;;;;;4981563;28;20473;-80
2021/09/09 10:11:48;;;;;;;1.50;0.80;;;28.90;76.20;;;;;;4974352;28;20645;-80
2021/09/09 10:14:22;;;;;;;1.47;0.80;;;29.00;76.90;;;;;;4982439;28;20457;-79
2021/09/09 10:16:54;;;;;;;1.43;0.80;;;29.00;77.00;;;;;;4961737;28;20481;-80
2021/09/09 10:19:30;;;;;;;1.43;0.80;;;29.10;76.90;;;;;;4978526;28;20523;-80
2021/09/09 10:22:10;;;;;;;1.47;0.80;;;29.20;75.50;;;;;;4969837;28;20476;-79
2021/09/09 10:24:39;;;;;;;1.43;0.90;;;29.30;75.90;;;;;;4981412;28;20485;-79
2021/09/09 10:27:21;;;;;;;1.50;0.90;;;29.40;75.60;;;;;;4975875;28;20495;-78
2021/09/09 10:29:49;;;;;;;1.47;0.80;;;29.50;76.40;;;;;;4976134;28;20481;-80
2021/09/09 10:33:04;;;;;;;1.47;0.80;;;29.50;75.60;;;;;;4975646;28;21256;-80
2021/09/09 10:35:38;;;;;;;1.50;0.80;;;29.50;76.30;;;;;;4963184;28;21141;-79
2021/09/09 10:38:31;;;;;;;1.50;0.80;;;29.60;76.20;;;;;;4979026;28;20492;-81
2021/09/09 10:41:01;;;;;;;1.50;0.80;;;29.70;75.80;;;;;;4955025;28;20498;-81
2021/09/09 10:43:48;;;;;;;1.50;0.80;;;29.80;76.10;;;;;;4975140;28;20548;-80
2021/09/09 10:46:17;;;;;;;1.50;0.80;;;29.90;76.70;;;;;;4962084;28;20498;-77
2021/09/09 10:48:46;;;;;;;1.47;0.80;;;29.90;75.30;;;;;;4971973;28;20481;-79
2021/09/09 10:51:19;;;;;;;1.50;0.80;;;30.00;76.10;;;;;;4957199;28;20527;-79
2021/09/09 10:53:55;;;;;;;1.47;0.80;;;30.00;76.10;;;;;;4976181;28;20537;-79
2021/09/09 10:56:23;;;;;;;1.47;0.90;;;30.20;75.10;;;;;;4970246;28;20918;-80
2021/09/09 10:59:10;;;;;;;1.50;0.80;;;30.20;75.20;;;;;;4975534;28;20494;-80
2021/09/09 11:01:37;;;;;;;1.40;0.90;;;30.30;76.00;;;;;;4977007;28;20820;-78
2021/09/09 11:04:07;;;;;;;1.47;0.90;;;30.40;75.90;;;;;;4982690;28;20552;-81
2021/09/09 11:06:35;;;;;;;1.43;0.80;;;30.50;75.60;;;;;;4959434;28;21011;-78
2021/09/09 11:09:13;;;;;;;1.47;0.80;;;30.60;75.60;;;;;;4974034;28;20484;-81
2021/09/09 11:11:46;;;;;;;1.50;0.80;;;30.60;75.60;;;;;;4952102;28;20488;-79
2021/09/09 11:14:13;;;;;;;1.50;0.80;;;30.70;75.50;;;;;;4974338;28;20521;-80
2021/09/09 11:16:40;;;;;;;1.50;1.00;;;30.70;75.00;;;;;;4956004;28;20492;-78
2021/09/09 11:19:09;;;;;;;1.50;0.80;;;30.80;75.60;;;;;;4973003;28;20480;-80
2021/09/09 11:21:41;;;;;;;1.47;0.80;;;30.90;75.20;;;;;;4963546;28;20490;-80
2021/09/09 11:24:10;;;;;;;1.47;0.80;;;30.90;75.40;;;;;;4965531;28;20460;-80
2021/09/09 11:26:37;;;;;;;1.43;0.80;;;31.00;75.20;;;;;;4961623;28;20503;-80
2021/09/09 11:29:06;;;;;;;1.50;0.80;;;31.00;75.10;;;;;;4975850;28;20486;-80
2021/09/09 11:31:35;;;;;;;1.90;1.40;;;31.10;75.00;;;;;;4957312;28;20492;-79
2021/09/09 11:34:03;;;;;;;1.50;0.80;;;31.10;74.80;;;;;;4973846;28;20457;-80
2021/09/09 11:36:32;;;;;;;1.47;0.80;;;31.10;74.80;;;;;;4961729;28;20528;-80
2021/09/09 11:39:02;;;;;;;1.47;0.90;;;31.10;75.20;;;;;;4974878;28;20469;-77
2021/09/09 11:41:31;;;;;;;1.47;0.80;;;31.20;75.20;;;;;;4955964;28;20504;-81
2021/09/09 11:43:59;;;;;;;1.50;0.80;;;31.30;74.80;;;;;;4966148;28;20480;-80
2021/09/09 11:46:29;;;;;;;1.47;0.80;;;31.40;75.20;;;;;;4958195;28;20488;-78
2021/09/09 11:48:57;;;;;;;1.50;0.80;;;31.50;74.50;;;;;;4970424;28;20236;-80
2021/09/09 11:51:35;;;;;;;1.50;0.80;;;31.60;74.40;;;;;;4966027;28;20515;-80
2021/09/09 11:54:06;;;;;;;1.50;0.80;;;31.60;74.30;;;;;;4975775;28;20534;-81
2021/09/09 11:56:32;;;;;;;1.50;0.80;;;31.70;75.40;;;;;;4960879;28;20335;-80
2021/09/09 11:59:03;;;;;;;1.47;0.80;;;31.70;74.90;;;;;;4969427;28;20256;-81
2021/09/09 12:01:31;;;;;;;1.40;0.80;;;31.80;74.80;;;;;;4969134;28;20936;-79
2021/09/09 12:04:00;;;;;;;1.47;0.80;;;31.70;75.30;;;;;;4980442;28;20214;-80
2021/09/09 12:06:27;;;;;;;1.47;0.80;;;31.70;75.10;;;;;;4967068;28;20233;-81
2021/09/09 12:08:54;;;;;;;1.47;0.80;;;31.60;75.20;;;;;;4980049;28;20612;-79
2021/09/09 12:11:22;;;;;;;1.47;0.80;;;31.50;75.40;;;;;;4966401;28;20631;-80
2021/09/09 12:13:49;;;;;;;1.47;0.80;;;31.40;75.80;;;;;;4966621;28;20210;-79
2021/09/09 12:16:20;;;;;;;1.47;0.90;;;31.30;76.10;;;;;;4954822;28;20485;-79
2021/09/09 12:18:49;;;;;;;1.50;0.90;;;31.20;76.20;;;;;;4967796;28;20576;-77
2021/09/09 12:21:18;;;;;;;1.43;0.80;;;31.00;76.90;;;;;;4956182;28;20976;-79
2021/09/09 12:24:04;;;;;;;2.43;1.63;;;30.80;77.60;;;;;;4967744;28;20509;-79
2021/09/09 12:26:33;;;;;;;1.43;0.80;;;30.60;78.30;;;;;;4956356;28;20269;-79
2021/09/09 12:29:00;;;;;;;1.47;0.90;;;30.40;78.60;;;;;;4967787;28;20980;-79
2021/09/09 12:31:32;;;;;;;1.50;0.90;;;30.20;81.00;;;;;;4964718;28;20485;-80
2021/09/09 12:33:59;;;;;;;1.47;0.80;;;30.10;82.10;;;;;;4973686;28;20471;-80
2021/09/09 12:36:40;;;;;;;1.47;0.80;;;30.00;82.50;;;;;;4967348;28;20491;-79
2021/09/09 12:39:07;;;;;;;1.60;1.00;;;29.90;83.30;;;;;;4979910;28;20473;-79
2021/09/09 12:41:35;;;;;;;1.43;0.80;;;29.80;82.60;;;;;;4961769;28;20485;-79
2021/09/09 12:44:15;;;;;;;1.43;0.80;;;29.70;82.70;;;;;;4971589;28;20464;-80
2021/09/09 12:46:44;;;;;;;1.50;0.90;;;29.80;82.10;;;;;;4961133;28;20488;-79
2021/09/09 12:49:12;;;;;;;1.50;0.90;;;29.90;82.00;;;;;;4970424;28;20477;-80
2021/09/09 12:51:41;;;;;;;1.50;0.87;;;30.00;81.10;;;;;;4961763;28;20489;-79
2021/09/09 12:54:09;;;;;;;1.47;0.80;;;30.20;79.30;;;;;;4971290;28;20907;-80